Main page
METAR-TAF:

METAR-TAF

Airports :

Campina Grande Airport

Campina Grande, Paraíba, Brazil

latitude: 07-13S, longitude: 035-53W, elevation: 548 m

Current weather observation

The report was made 37 minutes ago, at 16:00 UTC
Wind 9 kt from the East, varying between Northeast and Southeast
Temperature 31°C
Humidity 55%
Pressure 1013 hPa
Visibility 10 km or more
Broken clouds at a height of 3000 ft

METAR: SBKG 251600Z 08009KT 050V130 9999 BKN030 31/21 Q1013

Time: 13:37 (16:37 UTC)

Forecast

The report was made 6 hours and 37 minutes ago, at 10:00 UTC
Forecast valid from 25 at 12 UTC to 25 at 24 UTC
Wind 13 kt from the East
Visibility 10 km or more
Broken clouds at a height of 1500 ft
Becoming
from 25 at 16 UTC to 25 at 17 UTC
Scattered clouds at a height of 3000 ft

TAF: SBKG 251000Z 2512/2524 10013KT 9999 BKN015 TN25/2512Z TX30/2516Z BECMG 2516/2517 SCT030 RMK PEU

Weather observations and forecasts of more than 4000 airports (METAR and TAF reports).

The available stations are represented by yellow and red dots on the map.

Hover mouse over dot to see the name of the station.

Then click to see weather observations and forecasts.

To change the map : click on the green buttons with a black cross to zoom in, on the green button with a dash to zoom out, or on the green arrows for adjacent maps.


METAR-TAF: